FIN441 EFHK-EFOU
Flight info
| Callsign | FIN441 |
|---|---|
| Flight time | 0h 48m |
| Altitude | 36000 |
| Route | TEVRU Y75 SUVIB |
| Aircraft | A320/M-SDE3FGHIRWY/LB1 |
Departure
| Time | 2026-05-07 19:12 |
|---|---|
| Airport | Helsinki Vantaa Airport (EFHK) |
Arrival
| Time | 2026-05-07 20:00 |
|---|---|
| Airport | Oulu Airport (EFOU) |
| Time | Latitude | Longitude | Altitude | Speed | Heading |
|---|---|---|---|---|---|
| 2026-05-07 18:43 | 60.31901 | 24.96957 | 167 ft | 0 kts | 242° |
| 2026-05-07 19:00 | 60.31907 | 24.96979 | 166 ft | 4 kts | 242° |
| 2026-05-07 19:01 | 60.31919 | 24.97026 | 166 ft | 4 kts | 251° |
| 2026-05-07 19:01 | 60.31921 | 24.97075 | 166 ft | 4 kts | 292° |
| 2026-05-07 19:01 | 60.31908 | 24.97109 | 166 ft | 1 kts | 333° |
| 2026-05-07 19:01 | 60.31904 | 24.97113 | 166 ft | 0 kts | 333° |
| 2026-05-07 19:04 | 60.31920 | 24.97096 | 166 ft | 3 kts | 333° |
| 2026-05-07 19:05 | 60.31947 | 24.97069 | 166 ft | 5 kts | 333° |
| 2026-05-07 19:05 | 60.31990 | 24.97024 | 166 ft | 9 kts | 332° |
| 2026-05-07 19:05 | 60.32056 | 24.96954 | 166 ft | 13 kts | 331° |
| 2026-05-07 19:05 | 60.32141 | 24.96856 | 166 ft | 9 kts | 330° |
| 2026-05-07 19:06 | 60.32188 | 24.96800 | 166 ft | 7 kts | 329° |
| 2026-05-07 19:06 | 60.32261 | 24.96715 | 166 ft | 4 kts | 330° |
| 2026-05-07 19:06 | 60.32297 | 24.96673 | 167 ft | 11 kts | 330° |
| 2026-05-07 19:07 | 60.32355 | 24.96602 | 172 ft | 7 kts | 329° |
| 2026-05-07 19:07 | 60.32378 | 24.96575 | 174 ft | 3 kts | 330° |
| 2026-05-07 19:07 | 60.32450 | 24.96492 | 174 ft | 20 kts | 330° |
| 2026-05-07 19:07 | 60.32578 | 24.96342 | 173 ft | 22 kts | 329° |
| 2026-05-07 19:08 | 60.32717 | 24.96177 | 172 ft | 24 kts | 330° |
| 2026-05-07 19:08 | 60.32864 | 24.96007 | 174 ft | 25 kts | 330° |
| 2026-05-07 19:08 | 60.32996 | 24.95860 | 179 ft | 18 kts | 332° |
| 2026-05-07 19:08 | 60.33102 | 24.95715 | 180 ft | 20 kts | 314° |
| 2026-05-07 19:09 | 60.33187 | 24.95532 | 182 ft | 11 kts | 308° |
| 2026-05-07 19:09 | 60.33198 | 24.95392 | 181 ft | 11 kts | 252° |
| 2026-05-07 19:09 | 60.33140 | 24.95250 | 178 ft | 15 kts | 229° |
| 2026-05-07 19:09 | 60.33108 | 24.95034 | 178 ft | 17 kts | 272° |
| 2026-05-07 19:10 | 60.33111 | 24.94787 | 181 ft | 17 kts | 271° |
| 2026-05-07 19:10 | 60.33114 | 24.94562 | 196 ft | 11 kts | 272° |
| 2026-05-07 19:10 | 60.33114 | 24.94441 | 190 ft | 10 kts | 265° |
| 2026-05-07 19:10 | 60.33064 | 24.94281 | 194 ft | 4 kts | 226° |
| 2026-05-07 19:11 | 60.33063 | 24.94280 | 194 ft | 0 kts | 226° |
| 2026-05-07 19:11 | 60.33053 | 24.94257 | 194 ft | 11 kts | 227° |
| 2026-05-07 19:11 | 60.32832 | 24.93773 | 181 ft | 84 kts | 227° |
| 2026-05-07 19:11 | 60.32292 | 24.92580 | 170 ft | 144 kts | 227° |
| 2026-05-07 19:12 | 60.31538 | 24.90906 | 478 ft | 161 kts | 228° |
| 2026-05-07 19:12 | 60.30837 | 24.89372 | 1443 ft | 147 kts | 230° |
| 2026-05-07 19:12 | 60.30146 | 24.87526 | 1560 ft | 181 kts | 246° |
| 2026-05-07 19:12 | 60.29932 | 24.84966 | 1898 ft | 194 kts | 283° |
| 2026-05-07 19:13 | 60.30520 | 24.82472 | 2268 ft | 210 kts | 305° |
| 2026-05-07 19:13 | 60.31269 | 24.79784 | 2812 ft | 225 kts | 299° |
| 2026-05-07 19:13 | 60.31991 | 24.76841 | 3377 ft | 243 kts | 300° |
| 2026-05-07 19:13 | 60.32804 | 24.73786 | 4205 ft | 250 kts | 301° |
| 2026-05-07 19:14 | 60.33659 | 24.70689 | 5120 ft | 255 kts | 301° |
| 2026-05-07 19:14 | 60.34534 | 24.67551 | 6014 ft | 259 kts | 301° |
| 2026-05-07 19:14 | 60.35667 | 24.64712 | 6861 ft | 263 kts | 321° |
| 2026-05-07 19:14 | 60.37279 | 24.62976 | 7710 ft | 267 kts | 343° |
| 2026-05-07 19:15 | 60.39136 | 24.62622 | 8571 ft | 272 kts | 0° |
| 2026-05-07 19:15 | 60.41009 | 24.62799 | 9434 ft | 275 kts | 0° |
| 2026-05-07 19:15 | 60.42935 | 24.63015 | 10256 ft | 280 kts | 0° |
| 2026-05-07 19:15 | 60.44954 | 24.63246 | 10571 ft | 302 kts | 360° |
| 2026-05-07 19:16 | 60.47129 | 24.63488 | 10929 ft | 320 kts | 360° |
| 2026-05-07 19:16 | 60.49379 | 24.63741 | 11595 ft | 327 kts | 359° |
| 2026-05-07 19:16 | 60.51661 | 24.63999 | 12343 ft | 331 kts | 358° |
| 2026-05-07 19:16 | 60.53975 | 24.64258 | 13103 ft | 335 kts | 358° |
| 2026-05-07 19:17 | 60.56315 | 24.64515 | 13870 ft | 339 kts | 357° |
| 2026-05-07 19:17 | 60.58684 | 24.64775 | 14503 ft | 343 kts | 356° |
| 2026-05-07 19:17 | 60.61085 | 24.65036 | 15145 ft | 347 kts | 356° |
| 2026-05-07 19:17 | 60.63475 | 24.65299 | 15778 ft | 350 kts | 356° |
| 2026-05-07 19:18 | 60.65921 | 24.65570 | 16447 ft | 354 kts | 355° |
| 2026-05-07 19:18 | 60.68389 | 24.65844 | 17103 ft | 357 kts | 355° |
| 2026-05-07 19:18 | 60.70889 | 24.66122 | 17723 ft | 361 kts | 355° |
| 2026-05-07 19:18 | 60.73408 | 24.66405 | 18354 ft | 364 kts | 355° |
| 2026-05-07 19:19 | 60.75950 | 24.66686 | 18895 ft | 368 kts | 354° |
| 2026-05-07 19:19 | 60.78525 | 24.66971 | 19420 ft | 372 kts | 354° |
| 2026-05-07 19:19 | 60.81120 | 24.67260 | 20003 ft | 375 kts | 354° |
| 2026-05-07 19:19 | 60.83727 | 24.67554 | 20600 ft | 377 kts | 354° |
| 2026-05-07 19:20 | 60.86357 | 24.67847 | 21191 ft | 381 kts | 353° |
| 2026-05-07 19:20 | 60.89023 | 24.68139 | 21670 ft | 386 kts | 353° |
| 2026-05-07 19:20 | 60.91680 | 24.68428 | 22161 ft | 390 kts | 353° |
| 2026-05-07 19:20 | 60.94404 | 24.68727 | 22687 ft | 394 kts | 353° |
| 2026-05-07 19:21 | 60.97171 | 24.69035 | 23198 ft | 398 kts | 353° |
| 2026-05-07 19:21 | 60.99937 | 24.69348 | 23689 ft | 402 kts | 353° |
| 2026-05-07 19:21 | 61.02741 | 24.69669 | 24094 ft | 406 kts | 353° |
| 2026-05-07 19:21 | 61.05569 | 24.69993 | 24511 ft | 408 kts | 353° |
| 2026-05-07 19:22 | 61.08415 | 24.70324 | 24928 ft | 411 kts | 353° |
| 2026-05-07 19:22 | 61.11276 | 24.70658 | 25334 ft | 413 kts | 353° |
| 2026-05-07 19:22 | 61.14146 | 24.70991 | 25737 ft | 415 kts | 353° |
| 2026-05-07 19:22 | 61.17041 | 24.71324 | 26126 ft | 417 kts | 353° |
| 2026-05-07 19:23 | 61.19905 | 24.71647 | 26562 ft | 420 kts | 353° |
| 2026-05-07 19:23 | 61.22837 | 24.71975 | 26921 ft | 423 kts | 353° |
| 2026-05-07 19:23 | 61.25780 | 24.72309 | 27278 ft | 425 kts | 353° |
| 2026-05-07 19:23 | 61.28747 | 24.72647 | 27648 ft | 428 kts | 353° |
| 2026-05-07 19:24 | 61.31728 | 24.72987 | 28010 ft | 430 kts | 353° |
| 2026-05-07 19:24 | 61.34726 | 24.73332 | 28359 ft | 433 kts | 353° |
| 2026-05-07 19:24 | 61.37736 | 24.73680 | 28699 ft | 435 kts | 353° |
| 2026-05-07 19:24 | 61.40771 | 24.74031 | 29036 ft | 437 kts | 353° |
| 2026-05-07 19:25 | 61.43806 | 24.74382 | 29374 ft | 439 kts | 353° |
| 2026-05-07 19:25 | 61.46873 | 24.74737 | 29678 ft | 442 kts | 353° |
| 2026-05-07 19:25 | 61.49946 | 24.75095 | 30056 ft | 445 kts | 354° |
| 2026-05-07 19:25 | 61.53012 | 24.75455 | 30262 ft | 449 kts | 354° |
| 2026-05-07 19:26 | 61.56136 | 24.75825 | 30473 ft | 451 kts | 354° |
| 2026-05-07 19:26 | 61.59276 | 24.76197 | 30727 ft | 453 kts | 355° |
| 2026-05-07 19:26 | 61.62424 | 24.76571 | 30975 ft | 454 kts | 355° |
| 2026-05-07 19:26 | 61.65589 | 24.76940 | 31202 ft | 456 kts | 355° |
| 2026-05-07 19:27 | 61.68761 | 24.77307 | 31414 ft | 458 kts | 355° |
| 2026-05-07 19:27 | 61.71942 | 24.77682 | 31689 ft | 458 kts | 355° |
| 2026-05-07 19:27 | 61.75118 | 24.78068 | 32000 ft | 457 kts | 355° |
| 2026-05-07 19:27 | 61.78294 | 24.78454 | 32292 ft | 457 kts | 355° |
| 2026-05-07 19:28 | 61.81434 | 24.78830 | 32630 ft | 457 kts | 356° |
| 2026-05-07 19:28 | 61.84610 | 24.79205 | 32869 ft | 459 kts | 356° |
| 2026-05-07 19:28 | 61.87800 | 24.79581 | 33132 ft | 459 kts | 356° |
| 2026-05-07 19:28 | 61.90992 | 24.79962 | 33423 ft | 460 kts | 356° |
| 2026-05-07 19:29 | 61.94188 | 24.80348 | 33707 ft | 460 kts | 356° |
| 2026-05-07 19:29 | 61.97381 | 24.80733 | 33999 ft | 460 kts | 356° |
| 2026-05-07 19:29 | 62.00573 | 24.81116 | 34262 ft | 460 kts | 356° |
| 2026-05-07 19:29 | 62.03768 | 24.81499 | 34502 ft | 460 kts | 356° |
| 2026-05-07 19:30 | 62.06964 | 24.81882 | 34729 ft | 460 kts | 356° |
| 2026-05-07 19:30 | 62.10156 | 24.82268 | 34957 ft | 460 kts | 356° |
| 2026-05-07 19:30 | 62.13354 | 24.82658 | 35207 ft | 460 kts | 357° |
| 2026-05-07 19:30 | 62.16504 | 24.83041 | 35386 ft | 461 kts | 357° |
| 2026-05-07 19:31 | 62.19715 | 24.83428 | 35592 ft | 461 kts | 357° |
| 2026-05-07 19:31 | 62.22915 | 24.83815 | 35805 ft | 461 kts | 358° |
| 2026-05-07 19:31 | 62.26124 | 24.84207 | 36010 ft | 461 kts | 358° |
| 2026-05-07 19:31 | 62.29330 | 24.84598 | 36106 ft | 461 kts | 358° |
| 2026-05-07 19:32 | 62.35704 | 24.85387 | 36128 ft | 458 kts | 358° |
| 2026-05-07 19:32 | 62.41906 | 24.86175 | 36127 ft | 455 kts | 358° |
| 2026-05-07 19:33 | 62.48220 | 24.87662 | 36128 ft | 458 kts | 2° |
| 2026-05-07 19:33 | 62.54530 | 24.89748 | 36123 ft | 459 kts | 4° |
| 2026-05-07 19:34 | 62.60830 | 24.91936 | 36132 ft | 459 kts | 3° |
| 2026-05-07 19:34 | 62.67098 | 24.94040 | 36137 ft | 458 kts | 3° |
| 2026-05-07 19:35 | 62.73405 | 24.96107 | 36137 ft | 458 kts | 3° |
| 2026-05-07 19:35 | 62.79713 | 24.98174 | 36160 ft | 459 kts | 3° |
| 2026-05-07 19:36 | 62.86027 | 25.00270 | 36150 ft | 459 kts | 4° |
| 2026-05-07 19:36 | 62.92340 | 25.02390 | 36141 ft | 459 kts | 4° |
| 2026-05-07 19:37 | 62.98613 | 25.04509 | 36147 ft | 459 kts | 4° |
| 2026-05-07 19:37 | 63.04925 | 25.06647 | 36142 ft | 459 kts | 4° |
| 2026-05-07 19:38 | 63.08090 | 25.07719 | 35967 ft | 461 kts | 4° |
| 2026-05-07 19:38 | 63.11286 | 25.08798 | 34928 ft | 470 kts | 4° |
| 2026-05-07 19:38 | 63.14524 | 25.09892 | 34264 ft | 469 kts | 4° |
| 2026-05-07 19:38 | 63.17738 | 25.10985 | 33647 ft | 465 kts | 4° |
| 2026-05-07 19:39 | 63.20913 | 25.12075 | 33078 ft | 460 kts | 4° |
| 2026-05-07 19:39 | 63.24066 | 25.13160 | 32497 ft | 455 kts | 4° |
| 2026-05-07 19:39 | 63.27133 | 25.14214 | 31938 ft | 451 kts | 3° |
| 2026-05-07 19:39 | 63.30226 | 25.15276 | 31371 ft | 447 kts | 3° |
| 2026-05-07 19:40 | 63.33283 | 25.16323 | 30820 ft | 443 kts | 3° |
| 2026-05-07 19:40 | 63.36320 | 25.17369 | 30270 ft | 440 kts | 3° |
| 2026-05-07 19:40 | 63.39329 | 25.18410 | 29701 ft | 436 kts | 3° |
| 2026-05-07 19:40 | 63.42305 | 25.19446 | 29143 ft | 430 kts | 4° |
| 2026-05-07 19:41 | 63.45238 | 25.20470 | 28638 ft | 423 kts | 4° |
| 2026-05-07 19:41 | 63.48125 | 25.21480 | 28132 ft | 417 kts | 4° |
| 2026-05-07 19:41 | 63.50974 | 25.22481 | 27651 ft | 411 kts | 4° |
| 2026-05-07 19:41 | 63.53745 | 25.23456 | 27181 ft | 406 kts | 4° |
| 2026-05-07 19:42 | 63.56513 | 25.24429 | 26727 ft | 400 kts | 4° |
| 2026-05-07 19:42 | 63.59239 | 25.25388 | 26275 ft | 395 kts | 4° |
| 2026-05-07 19:42 | 63.61939 | 25.26337 | 25821 ft | 390 kts | 4° |
| 2026-05-07 19:42 | 63.64602 | 25.27269 | 25376 ft | 386 kts | 4° |
| 2026-05-07 19:43 | 63.67241 | 25.28189 | 24913 ft | 382 kts | 4° |
| 2026-05-07 19:43 | 63.69859 | 25.29104 | 24451 ft | 379 kts | 4° |
| 2026-05-07 19:43 | 63.72452 | 25.30018 | 24007 ft | 376 kts | 5° |
| 2026-05-07 19:43 | 63.75030 | 25.30931 | 23492 ft | 374 kts | 5° |
| 2026-05-07 19:44 | 63.77592 | 25.31844 | 22996 ft | 370 kts | 6° |
| 2026-05-07 19:44 | 63.80085 | 25.32740 | 22542 ft | 366 kts | 6° |
| 2026-05-07 19:44 | 63.82583 | 25.33638 | 22073 ft | 358 kts | 6° |
| 2026-05-07 19:44 | 63.85006 | 25.34507 | 21631 ft | 347 kts | 6° |
| 2026-05-07 19:45 | 63.87352 | 25.35347 | 21207 ft | 336 kts | 6° |
| 2026-05-07 19:45 | 63.89654 | 25.36165 | 20794 ft | 333 kts | 6° |
| 2026-05-07 19:45 | 63.91933 | 25.36973 | 20363 ft | 331 kts | 6° |
| 2026-05-07 19:45 | 63.94201 | 25.37781 | 19946 ft | 328 kts | 6° |
| 2026-05-07 19:46 | 63.96452 | 25.38593 | 19528 ft | 326 kts | 6° |
| 2026-05-07 19:46 | 63.98659 | 25.39396 | 19131 ft | 325 kts | 6° |
| 2026-05-07 19:46 | 64.00882 | 25.40204 | 18725 ft | 323 kts | 6° |
| 2026-05-07 19:46 | 64.03096 | 25.41010 | 18324 ft | 322 kts | 7° |
| 2026-05-07 19:47 | 64.05304 | 25.41816 | 17890 ft | 320 kts | 7° |
| 2026-05-07 19:47 | 64.07498 | 25.42615 | 17489 ft | 318 kts | 7° |
| 2026-05-07 19:47 | 64.09671 | 25.43405 | 17100 ft | 315 kts | 7° |
| 2026-05-07 19:47 | 64.11829 | 25.44193 | 16718 ft | 313 kts | 7° |
| 2026-05-07 19:48 | 64.13975 | 25.44976 | 16334 ft | 311 kts | 7° |
| 2026-05-07 19:48 | 64.16106 | 25.45754 | 15951 ft | 310 kts | 7° |
| 2026-05-07 19:48 | 64.18229 | 25.46532 | 15580 ft | 308 kts | 7° |
| 2026-05-07 19:48 | 64.20311 | 25.47298 | 15212 ft | 307 kts | 7° |
| 2026-05-07 19:49 | 64.22415 | 25.48070 | 14837 ft | 305 kts | 7° |
| 2026-05-07 19:49 | 64.24509 | 25.48837 | 14462 ft | 305 kts | 7° |
| 2026-05-07 19:49 | 64.26598 | 25.49604 | 14087 ft | 304 kts | 7° |
| 2026-05-07 19:49 | 64.28685 | 25.50376 | 13690 ft | 303 kts | 7° |
| 2026-05-07 19:50 | 64.30755 | 25.51146 | 13320 ft | 301 kts | 7° |
| 2026-05-07 19:50 | 64.32811 | 25.51914 | 12933 ft | 298 kts | 7° |
| 2026-05-07 19:50 | 64.34857 | 25.52672 | 12558 ft | 296 kts | 7° |
| 2026-05-07 19:50 | 64.36897 | 25.53426 | 12099 ft | 298 kts | 7° |
| 2026-05-07 19:51 | 64.38964 | 25.53972 | 11422 ft | 304 kts | 360° |
| 2026-05-07 19:51 | 64.41083 | 25.54051 | 10643 ft | 313 kts | 359° |
| 2026-05-07 19:51 | 64.43243 | 25.54051 | 10266 ft | 308 kts | 359° |
| 2026-05-07 19:51 | 64.45354 | 25.54025 | 10029 ft | 292 kts | 358° |
| 2026-05-07 19:52 | 64.47321 | 25.54005 | 9643 ft | 277 kts | 359° |
| 2026-05-07 19:52 | 64.49242 | 25.53993 | 9300 ft | 273 kts | 359° |
| 2026-05-07 19:52 | 64.51135 | 25.53984 | 9010 ft | 271 kts | 359° |
| 2026-05-07 19:52 | 64.53021 | 25.53983 | 8652 ft | 271 kts | 359° |
| 2026-05-07 19:53 | 64.54907 | 25.53988 | 8291 ft | 270 kts | 359° |
| 2026-05-07 19:53 | 64.56781 | 25.53993 | 7888 ft | 269 kts | 359° |
| 2026-05-07 19:53 | 64.58652 | 25.54002 | 7511 ft | 268 kts | 359° |
| 2026-05-07 19:53 | 64.60485 | 25.54014 | 7190 ft | 267 kts | 359° |
| 2026-05-07 19:54 | 64.62337 | 25.54020 | 6882 ft | 266 kts | 359° |
| 2026-05-07 19:54 | 64.64182 | 25.54026 | 6575 ft | 265 kts | 359° |
| 2026-05-07 19:54 | 64.66023 | 25.54030 | 6219 ft | 264 kts | 358° |
| 2026-05-07 19:54 | 64.67853 | 25.54035 | 5828 ft | 263 kts | 358° |
| 2026-05-07 19:55 | 64.69684 | 25.54041 | 5440 ft | 263 kts | 359° |
| 2026-05-07 19:55 | 64.71510 | 25.54047 | 5050 ft | 262 kts | 358° |
| 2026-05-07 19:55 | 64.73318 | 25.54056 | 4642 ft | 259 kts | 358° |
| 2026-05-07 19:55 | 64.75107 | 25.54065 | 4238 ft | 256 kts | 358° |
| 2026-05-07 19:56 | 64.76859 | 25.54072 | 3843 ft | 254 kts | 358° |
| 2026-05-07 19:56 | 64.78616 | 25.54076 | 3448 ft | 251 kts | 358° |
| 2026-05-07 19:56 | 64.80358 | 25.54078 | 3055 ft | 249 kts | 358° |
| 2026-05-07 19:56 | 64.82084 | 25.54078 | 2651 ft | 247 kts | 358° |
| 2026-05-07 19:57 | 64.83797 | 25.54077 | 2331 ft | 242 kts | 358° |
| 2026-05-07 19:57 | 64.85426 | 25.54080 | 2308 ft | 226 kts | 358° |
| 2026-05-07 19:57 | 64.86941 | 25.54084 | 2307 ft | 209 kts | 357° |
| 2026-05-07 19:57 | 64.88254 | 25.53285 | 2303 ft | 187 kts | 320° |
| 2026-05-07 19:58 | 64.89023 | 25.50931 | 2193 ft | 181 kts | 295° |
| 2026-05-07 19:58 | 64.89621 | 25.48358 | 1922 ft | 175 kts | 303° |
| 2026-05-07 19:58 | 64.90291 | 25.46057 | 1290 ft | 174 kts | 301° |
| 2026-05-07 19:58 | 64.90915 | 25.43666 | 710 ft | 167 kts | 301° |
| 2026-05-07 19:59 | 64.91484 | 25.41386 | 478 ft | 154 kts | 300° |
| 2026-05-07 19:59 | 64.92018 | 25.39352 | 282 ft | 143 kts | 301° |
| 2026-05-07 19:59 | 64.92512 | 25.37407 | 83 ft | 135 kts | 302° |
| 2026-05-07 19:59 | 64.92947 | 25.35700 | 50 ft | 105 kts | 302° |
| 2026-05-07 20:00 | 64.93239 | 25.34542 | 52 ft | 58 kts | 301° |
| 2026-05-07 20:00 | 64.93325 | 25.34206 | 52 ft | 16 kts | 305° |
| 2026-05-07 20:00 | 64.93418 | 25.34067 | 53 ft | 17 kts | 340° |
| 2026-05-07 20:00 | 64.93521 | 25.34183 | 51 ft | 18 kts | 75° |
| 2026-05-07 20:01 | 64.93475 | 25.34390 | 51 ft | 14 kts | 120° |
| 2026-05-07 20:01 | 64.93429 | 25.34574 | 47 ft | 12 kts | 121° |
| 2026-05-07 20:01 | 64.93387 | 25.34737 | 51 ft | 11 kts | 121° |
| 2026-05-07 20:01 | 64.93348 | 25.34889 | 49 ft | 13 kts | 121° |
| 2026-05-07 20:02 | 64.93282 | 25.35142 | 51 ft | 22 kts | 121° |
| 2026-05-07 20:02 | 64.93190 | 25.35503 | 51 ft | 27 kts | 121° |
| 2026-05-07 20:02 | 64.93090 | 25.35898 | 49 ft | 29 kts | 121° |
| 2026-05-07 20:02 | 64.93012 | 25.36206 | 50 ft | 18 kts | 120° |
| 2026-05-07 20:03 | 64.92952 | 25.36440 | 51 ft | 16 kts | 121° |
| 2026-05-07 20:03 | 64.92898 | 25.36649 | 50 ft | 14 kts | 121° |
| 2026-05-07 20:03 | 64.92849 | 25.36836 | 50 ft | 13 kts | 121° |
| 2026-05-07 20:03 | 64.92807 | 25.37004 | 47 ft | 11 kts | 120° |
| 2026-05-07 20:04 | 64.92770 | 25.37151 | 50 ft | 9 kts | 121° |
| 2026-05-07 20:04 | 64.92748 | 25.37245 | 49 ft | 5 kts | 104° |
| 2026-05-07 20:04 | 64.92765 | 25.37307 | 49 ft | 4 kts | 35° |
| 2026-05-07 20:04 | 64.92785 | 25.37335 | 50 ft | 3 kts | 30° |
| 2026-05-07 20:05 | 64.92801 | 25.37357 | 50 ft | 2 kts | 31° |
| 2026-05-07 20:05 | 64.92802 | 25.37358 | 50 ft | 0 kts | 31° |